Time;durP1;ratioP1;P1;durP2;ratioP2;P2;SDS_P1;SDS_P2;PMS_P1;PMS_P2;Temp;Humidity;BMP_temperature;BMP_pressure;BME280_temperature;BME280_humidity;BME280_pressure;Samples;Min_cycle;Max_cycle;Signal;HPM_P1;HPM_P2
2024/02/12 00:01:58;;;;;;;0.35;0.35;;;7.40;99.90;;;;;;4409150;32;20081;-58
2024/02/12 00:04:26;;;;;;;0.57;0.57;;;7.40;99.90;;;;;;4411453;32;20093;-58
2024/02/12 00:06:56;;;;;;;0.40;0.40;;;7.40;99.90;;;;;;4412441;32;20124;-58
2024/02/12 00:09:22;;;;;;;0.30;0.30;;;7.40;99.90;;;;;;4410632;32;20070;-58
2024/02/12 00:11:48;;;;;;;0.40;0.40;;;7.40;99.90;;;;;;4409651;32;20525;-58
2024/02/12 00:14:14;;;;;;;0.30;0.30;;;7.40;99.90;;;;;;4413008;32;20098;-58
2024/02/12 00:16:40;;;;;;;0.70;0.70;;;7.30;99.90;;;;;;4414131;32;20140;-58
2024/02/12 00:19:08;;;;;;;0.30;0.30;;;7.40;99.90;;;;;;4412578;32;20070;-59
2024/02/12 00:21:34;;;;;;;0.35;0.35;;;7.40;99.90;;;;;;4412693;32;20074;-59
2024/02/12 00:24:00;;;;;;;0.40;0.40;;;7.30;99.90;;;;;;4415350;32;20069;-58
2024/02/12 00:26:26;;;;;;;0.40;0.40;;;7.30;99.90;;;;;;4413700;32;20070;-57
2024/02/12 00:28:52;;;;;;;0.30;0.30;;;7.40;99.90;;;;;;4411115;32;20081;-58
2024/02/12 00:31:17;;;;;;;0.25;0.25;;;7.40;99.90;;;;;;4414778;32;20124;-58
2024/02/12 00:33:43;;;;;;;0.30;0.30;;;7.40;99.90;;;;;;4415095;32;20069;-57
2024/02/12 00:36:09;;;;;;;0.30;0.30;;;7.40;99.90;;;;;;4416719;32;20525;-58
2024/02/12 00:38:35;;;;;;;0.37;0.37;;;7.40;99.90;;;;;;4414417;32;20557;-58
2024/02/12 00:41:00;;;;;;;0.57;0.57;;;7.40;99.90;;;;;;4413776;32;20074;-59
2024/02/12 00:43:26;;;;;;;0.40;0.40;;;7.40;99.90;;;;;;4410937;32;20466;-57
2024/02/12 00:45:52;;;;;;;0.35;0.35;;;7.40;99.90;;;;;;4409741;32;20065;-57
2024/02/12 00:48:18;;;;;;;0.40;0.40;;;7.40;99.90;;;;;;4408637;32;20128;-61
2024/02/12 00:50:44;;;;;;;0.50;0.50;;;7.40;99.90;;;;;;4413084;32;20944;-58
2024/02/12 00:53:10;;;;;;;0.30;0.30;;;7.40;99.90;;;;;;4412178;32;20076;-58
2024/02/12 00:55:36;;;;;;;0.37;0.37;;;7.40;99.90;;;;;;4413108;32;20073;-57
2024/02/12 00:58:03;;;;;;;0.40;0.40;;;7.40;99.90;;;;;;4417061;32;20077;-57
2024/02/12 01:00:28;;;;;;;0.22;0.22;;;7.40;99.90;;;;;;4413966;32;20536;-60
2024/02/12 01:02:54;;;;;;;0.50;0.50;;;7.40;99.90;;;;;;4413260;32;20287;-60
2024/02/12 01:05:19;;;;;;;0.20;0.20;;;7.40;99.90;;;;;;4415905;32;20085;-59
2024/02/12 01:07:45;;;;;;;0.30;0.30;;;7.40;99.90;;;;;;4416147;32;20070;-59
2024/02/12 01:10:11;;;;;;;0.40;0.40;;;7.30;99.90;;;;;;4414802;32;20573;-59
2024/02/12 01:12:36;;;;;;;0.50;0.50;;;7.30;99.90;;;;;;4410408;32;20089;-59
2024/02/12 01:15:02;;;;;;;0.60;0.60;;;7.30;99.90;;;;;;4412864;32;20115;-59
2024/02/12 01:17:29;;;;;;;0.52;0.52;;;7.30;99.90;;;;;;4414676;32;20427;-59
2024/02/12 01:19:55;;;;;;;0.40;0.40;;;7.40;99.90;;;;;;4412763;32;20078;-58
2024/02/12 01:22:20;;;;;;;1.00;0.45;;;7.40;99.90;;;;;;4411825;32;20065;-59
2024/02/12 01:24:46;;;;;;;0.50;0.50;;;7.40;99.90;;;;;;4412597;32;20061;-59
2024/02/12 01:27:12;;;;;;;0.32;0.32;;;7.40;99.90;;;;;;4414957;32;20077;-59
2024/02/12 01:29:40;;;;;;;0.80;0.57;;;7.40;99.90;;;;;;4414476;32;20086;-60
2024/02/12 01:32:06;;;;;;;0.47;0.47;;;7.40;99.90;;;;;;4412976;32;20102;-60
2024/02/12 01:34:32;;;;;;;0.37;0.37;;;7.40;99.90;;;;;;4415413;32;20069;-59
2024/02/12 01:36:58;;;;;;;7.53;1.55;;;7.40;99.90;;;;;;4415970;32;20094;-60
2024/02/12 01:39:23;;;;;;;0.30;0.30;;;7.40;99.90;;;;;;4415632;32;20053;-60
2024/02/12 01:41:49;;;;;;;0.37;0.37;;;7.40;99.90;;;;;;4412978;32;20064;-60
2024/02/12 01:44:14;;;;;;;0.45;0.40;;;7.40;99.90;;;;;;4414333;32;20073;-60
2024/02/12 01:46:40;;;;;;;0.57;0.55;;;7.50;99.90;;;;;;4414969;32;20077;-59
2024/02/12 01:49:10;;;;;;;0.85;0.50;;;7.50;99.90;;;;;;4412726;32;20073;-59
2024/02/12 01:51:36;;;;;;;0.33;0.33;;;7.50;99.90;;;;;;4417417;32;20085;-58
2024/02/12 01:54:01;;;;;;;0.45;0.45;;;7.50;99.90;;;;;;4415176;32;21168;-57
2024/02/12 01:56:30;;;;;;;0.40;0.40;;;7.50;99.90;;;;;;4415727;32;20549;-58
2024/02/12 01:58:59;;;;;;;0.40;0.40;;;7.50;99.90;;;;;;4413564;32;20453;-57
2024/02/12 02:01:24;;;;;;;1.08;0.62;;;7.50;99.90;;;;;;4413835;32;20750;-57
2024/02/12 02:03:50;;;;;;;0.40;0.40;;;7.60;99.90;;;;;;4413102;32;20073;-58
2024/02/12 02:06:16;;;;;;;0.75;0.55;;;7.50;99.90;;;;;;4413276;32;20097;-58
2024/02/12 02:08:44;;;;;;;0.40;0.40;;;7.50;99.90;;;;;;4412745;32;20057;-58
2024/02/12 02:11:11;;;;;;;0.30;0.30;;;7.50;99.90;;;;;;4413807;32;20109;-58
2024/02/12 02:13:42;;;;;;;0.40;0.40;;;7.50;99.90;;;;;;4396361;32;20132;-58
2024/02/12 02:16:08;;;;;;;0.40;0.40;;;7.50;99.90;;;;;;4416480;32;20766;-60
2024/02/12 02:18:33;;;;;;;0.40;0.40;;;7.60;99.90;;;;;;4414797;32;20129;-58
2024/02/12 02:21:00;;;;;;;0.43;0.43;;;7.60;99.90;;;;;;4413944;32;20536;-58
2024/02/12 02:23:25;;;;;;;2.08;1.55;;;7.60;99.90;;;;;;4414279;32;20069;-58
2024/02/12 02:25:51;;;;;;;0.40;0.40;;;7.70;99.90;;;;;;4417667;32;20077;-60
2024/02/12 02:28:18;;;;;;;0.47;0.47;;;7.70;99.90;;;;;;4410419;32;20069;-59
2024/02/12 02:30:43;;;;;;;0.60;0.60;;;7.70;99.90;;;;;;4412246;32;20073;-58
2024/02/12 02:33:09;;;;;;;0.70;0.70;;;7.70;99.90;;;;;;4413969;32;20050;-57
2024/02/12 02:35:36;;;;;;;0.57;0.57;;;7.70;99.90;;;;;;4416441;32;20077;-55
2024/02/12 02:38:02;;;;;;;0.50;0.50;;;7.60;99.90;;;;;;4415598;32;20183;-56
2024/02/12 02:40:28;;;;;;;0.40;0.40;;;7.60;99.90;;;;;;4412137;32;20580;-59
2024/02/12 02:42:53;;;;;;;0.52;0.52;;;7.70;99.90;;;;;;4409701;32;20082;-58
2024/02/12 02:45:19;;;;;;;0.40;0.40;;;7.70;99.90;;;;;;4411995;32;20073;-59
2024/02/12 02:47:44;;;;;;;2.55;1.15;;;7.70;99.90;;;;;;4412096;32;20085;-57
2024/02/12 02:50:10;;;;;;;1.00;0.93;;;7.70;99.90;;;;;;4415400;32;20679;-57
2024/02/12 02:52:37;;;;;;;2.40;0.80;;;7.70;99.90;;;;;;4417295;32;20062;-57
2024/02/12 02:55:03;;;;;;;0.57;0.57;;;7.70;99.90;;;;;;4413441;32;20077;-57
2024/02/12 02:57:29;;;;;;;0.80;0.80;;;7.70;99.90;;;;;;4415932;32;20069;-59
2024/02/12 02:59:54;;;;;;;0.95;0.90;;;7.70;99.90;;;;;;4412903;32;20070;-57
2024/02/12 03:02:20;;;;;;;0.50;0.50;;;7.70;99.90;;;;;;4411203;32;20067;-58
2024/02/12 03:04:45;;;;;;;2.33;0.75;;;7.70;99.90;;;;;;4415728;32;20101;-59
2024/02/12 03:07:11;;;;;;;1.55;0.93;;;7.70;99.90;;;;;;4412396;32;20073;-59
2024/02/12 03:09:37;;;;;;;0.95;0.68;;;7.70;99.90;;;;;;4413615;32;20074;-58
2024/02/12 03:12:03;;;;;;;31.87;0.85;;;7.70;99.90;;;;;;4411804;32;20135;-58
2024/02/12 03:14:29;;;;;;;0.50;0.50;;;7.70;99.90;;;;;;4408072;32;20111;-58
2024/02/12 03:16:55;;;;;;;0.40;0.40;;;7.70;99.90;;;;;;4416817;32;20057;-59
2024/02/12 03:19:21;;;;;;;0.70;0.70;;;7.70;99.90;;;;;;4414552;32;20073;-60
2024/02/12 03:21:49;;;;;;;1.75;0.75;;;7.80;99.90;;;;;;4412835;32;20549;-58
2024/02/12 03:24:15;;;;;;;0.62;0.60;;;7.70;99.90;;;;;;4411474;32;20449;-58
2024/02/12 03:26:42;;;;;;;0.52;0.52;;;7.70;99.90;;;;;;4416527;32;20533;-58
2024/02/12 03:29:07;;;;;;;0.73;0.70;;;7.70;99.90;;;;;;4412087;32;20074;-57
2024/02/12 03:31:32;;;;;;;0.60;0.55;;;7.80;99.90;;;;;;4413665;32;20093;-57
2024/02/12 03:33:58;;;;;;;0.60;0.60;;;7.80;99.90;;;;;;4413322;32;20560;-58
2024/02/12 03:36:23;;;;;;;3.78;1.87;;;7.80;99.90;;;;;;4416221;32;20142;-57
2024/02/12 03:38:49;;;;;;;1.00;0.60;;;7.70;99.90;;;;;;4413103;32;20181;-57
2024/02/12 03:41:18;;;;;;;0.50;0.50;;;7.70;99.90;;;;;;4411107;32;20949;-59
2024/02/12 03:43:44;;;;;;;0.62;0.62;;;7.70;99.90;;;;;;4412197;32;20478;-56
2024/02/12 03:46:19;;;;;;;0.50;0.50;;;7.70;99.90;;;;;;4408807;32;20168;-58
2024/02/12 03:59:54;;;;;;;1.37;0.95;;;7.80;99.90;;;;;;4406105;32;20595;-59
2024/02/12 04:02:21;;;;;;;2.80;0.73;;;7.70;99.90;;;;;;4412178;32;20073;-58
2024/02/12 04:04:49;;;;;;;0.50;0.50;;;7.80;99.90;;;;;;4394534;32;20157;-57
2024/02/12 04:07:15;;;;;;;0.62;0.62;;;7.80;99.90;;;;;;4412140;32;20112;-57
2024/02/12 04:09:42;;;;;;;0.50;0.50;;;7.70;99.90;;;;;;4413579;32;20141;-58
2024/02/12 04:12:11;;;;;;;0.62;0.62;;;7.80;99.90;;;;;;4409075;32;20124;-58
2024/02/12 04:14:40;;;;;;;0.50;0.50;;;7.80;99.90;;;;;;4410278;32;20599;-60
2024/02/12 04:17:06;;;;;;;0.57;0.57;;;7.80;99.90;;;;;;4412604;32;20073;-59
2024/02/12 04:19:32;;;;;;;0.43;0.43;;;7.80;99.90;;;;;;4415217;32;20069;-59
2024/02/12 04:21:58;;;;;;;0.50;0.50;;;7.90;99.90;;;;;;4415144;32;20605;-58
2024/02/12 04:24:28;;;;;;;0.52;0.52;;;7.90;99.90;;;;;;4412793;32;20060;-58
2024/02/12 04:26:54;;;;;;;0.70;0.70;;;7.90;99.90;;;;;;4410925;32;20062;-59
2024/02/12 04:29:20;;;;;;;0.50;0.50;;;7.90;99.90;;;;;;4409808;32;20069;-59
2024/02/12 04:31:47;;;;;;;0.40;0.40;;;8.00;99.90;;;;;;4411625;32;20109;-58
2024/02/12 04:34:13;;;;;;;0.75;0.65;;;8.00;99.90;;;;;;4412136;32;20049;-58
2024/02/12 04:36:40;;;;;;;0.68;0.68;;;8.00;99.90;;;;;;4412139;32;20759;-59
2024/02/12 04:39:06;;;;;;;0.70;0.62;;;8.00;99.90;;;;;;4415522;32;20081;-58
2024/02/12 04:41:40;;;;;;;0.55;0.55;;;7.90;99.90;;;;;;4412079;32;20073;-58
2024/02/12 04:44:06;;;;;;;1.35;1.08;;;8.00;99.90;;;;;;4410499;32;20074;-59
2024/02/12 04:46:32;;;;;;;0.95;0.95;;;8.00;99.90;;;;;;4408625;32;20085;-58
2024/02/12 04:48:59;;;;;;;1.10;0.73;;;8.00;99.90;;;;;;4410810;32;20081;-58
2024/02/12 04:51:24;;;;;;;0.90;0.85;;;8.00;99.90;;;;;;4415065;32;20061;-58
2024/02/12 04:53:52;;;;;;;1.85;1.10;;;8.00;99.90;;;;;;4410422;32;20123;-57
2024/02/12 04:56:17;;;;;;;0.70;0.70;;;8.00;99.90;;;;;;4410063;32;20097;-59
2024/02/12 04:58:43;;;;;;;0.90;0.88;;;8.00;99.90;;;;;;4413103;32;20504;-57
2024/02/12 05:01:08;;;;;;;3.92;0.82;;;8.10;99.90;;;;;;4409329;32;20516;-57
2024/02/12 05:03:35;;;;;;;7.43;1.20;;;8.00;99.90;;;;;;4413649;32;20090;-58
2024/02/12 05:06:01;;;;;;;0.37;0.37;;;8.10;99.90;;;;;;4414971;32;20181;-58
2024/02/12 05:08:26;;;;;;;0.60;0.60;;;8.00;99.90;;;;;;4413173;32;20120;-58
2024/02/12 05:10:52;;;;;;;6.22;1.50;;;8.00;99.90;;;;;;4412433;32;20084;-58
2024/02/12 05:13:17;;;;;;;2.65;1.92;;;8.00;99.90;;;;;;4410318;32;20086;-58
2024/02/12 05:15:43;;;;;;;2.30;1.10;;;8.00;99.90;;;;;;4409352;32;20061;-57
2024/02/12 05:22:32;;;;;;;0.60;0.60;;;8.00;99.90;;;;;;4409066;32;20579;-57
2024/02/12 05:22:54;;;;;;;1.48;0.77;;;8.00;99.90;;;;;;4407001;32;20073;-59
2024/02/12 05:23:39;;;;;;;2.25;0.82;;;8.10;99.90;;;;;;4396043;32;20082;-58
2024/02/12 05:26:04;;;;;;;0.62;0.62;;;8.00;99.90;;;;;;4408428;32;20175;-59
2024/02/12 05:28:31;;;;;;;0.47;0.47;;;8.00;99.90;;;;;;4411227;32;20078;-60
2024/02/12 05:30:58;;;;;;;7.65;1.15;;;8.00;99.90;;;;;;4410258;32;20069;-58
2024/02/12 05:33:24;;;;;;;0.65;0.65;;;8.00;99.90;;;;;;4414997;32;20648;-58
2024/02/12 05:35:49;;;;;;;1.62;0.68;;;8.00;99.90;;;;;;4415094;32;20085;-56
2024/02/12 05:38:15;;;;;;;0.62;0.62;;;8.00;99.90;;;;;;4414536;32;20076;-57
2024/02/12 05:40:40;;;;;;;1.98;0.90;;;8.00;99.90;;;;;;4409428;32;20562;-59
2024/02/12 05:43:06;;;;;;;0.52;0.52;;;8.00;99.90;;;;;;4415248;32;20077;-58
2024/02/12 05:45:31;;;;;;;7.97;0.93;;;8.00;99.90;;;;;;4411792;32;20089;-63
2024/02/12 05:47:57;;;;;;;1.62;0.73;;;8.00;99.90;;;;;;4412550;32;20483;-58
2024/02/12 05:50:22;;;;;;;0.50;0.50;;;8.00;99.90;;;;;;4414272;32;20394;-59
2024/02/12 05:52:48;;;;;;;1.00;0.80;;;8.00;99.90;;;;;;4401272;32;20081;-58
2024/02/12 05:55:13;;;;;;;1.48;0.68;;;8.00;99.90;;;;;;4405769;32;20415;-58
2024/02/12 05:57:39;;;;;;;3.15;1.50;;;7.90;99.90;;;;;;4407333;32;20080;-58
2024/02/12 06:00:05;;;;;;;0.60;0.60;;;7.90;99.90;;;;;;4401852;32;20411;-58
2024/02/12 06:02:30;;;;;;;1.42;0.90;;;7.90;99.90;;;;;;4409929;32;20107;-59
2024/02/12 06:04:56;;;;;;;0.68;0.68;;;7.90;99.90;;;;;;4413660;32;20102;-57
2024/02/12 06:07:21;;;;;;;2.25;0.85;;;7.90;99.90;;;;;;4376358;32;20077;-57
2024/02/12 06:09:47;;;;;;;2.70;0.75;;;7.90;99.90;;;;;;4394061;32;20065;-58
2024/02/12 06:12:12;;;;;;;0.68;0.65;;;7.90;99.90;;;;;;4409320;32;20077;-58
2024/02/12 06:14:38;;;;;;;6.62;1.50;;;7.90;99.90;;;;;;4379975;32;20102;-57
2024/02/12 06:17:04;;;;;;;0.57;0.55;;;7.90;99.90;;;;;;4398586;32;20597;-58
2024/02/12 06:19:29;;;;;;;0.50;0.50;;;7.90;99.90;;;;;;4406100;32;20208;-58
2024/02/12 06:21:56;;;;;;;0.43;0.43;;;7.90;99.90;;;;;;4394579;32;20554;-59
2024/02/12 06:24:23;;;;;;;0.85;0.62;;;7.90;99.90;;;;;;4400981;32;20419;-58
2024/02/12 06:26:49;;;;;;;0.93;0.70;;;7.90;99.90;;;;;;4382442;32;20094;-58
2024/02/12 06:29:15;;;;;;;0.73;0.73;;;7.90;99.90;;;;;;4385726;32;20216;-59
2024/02/12 06:31:42;;;;;;;0.43;0.43;;;7.90;99.90;;;;;;4396637;32;20361;-58
2024/02/12 06:34:08;;;;;;;1.27;0.60;;;7.90;99.90;;;;;;4397166;32;20077;-57
2024/02/12 06:36:34;;;;;;;5.50;1.40;;;7.90;99.90;;;;;;4390315;32;20106;-59
2024/02/12 06:39:00;;;;;;;0.50;0.50;;;7.90;99.90;;;;;;4360387;32;20077;-59
2024/02/12 06:41:27;;;;;;;1.52;0.62;;;7.90;99.90;;;;;;4392740;32;20102;-58
2024/02/12 06:43:52;;;;;;;0.98;0.50;;;7.90;99.90;;;;;;4398106;32;20066;-60
2024/02/12 06:46:18;;;;;;;0.37;0.37;;;7.90;99.90;;;;;;4391788;32;20102;-59
2024/02/12 06:48:45;;;;;;;0.30;0.30;;;7.90;99.90;;;;;;4389247;32;20073;-60
2024/02/12 06:51:11;;;;;;;5.82;1.50;;;7.90;99.90;;;;;;4388475;32;20467;-60
2024/02/12 06:53:36;;;;;;;0.50;0.50;;;7.90;99.90;;;;;;4378413;32;20101;-59
2024/02/12 06:56:04;;;;;;;0.60;0.60;;;7.90;99.90;;;;;;4382949;32;20090;-60
2024/02/12 06:58:29;;;;;;;0.50;0.50;;;7.90;99.90;;;;;;4375500;32;20097;-55
2024/02/12 07:00:57;;;;;;;2.15;0.80;;;7.90;99.90;;;;;;4365484;32;20618;-58
2024/02/12 07:03:23;;;;;;;1.20;0.65;;;7.90;99.90;;;;;;4373259;32;20553;-59
2024/02/12 07:05:50;;;;;;;1.95;1.08;;;7.90;99.90;;;;;;4372050;32;20156;-59
2024/02/12 07:08:18;;;;;;;1.05;1.00;;;7.90;99.90;;;;;;4371510;32;20186;-58
2024/02/12 07:10:44;;;;;;;0.35;0.35;;;7.90;99.90;;;;;;4374663;32;20754;-57
2024/02/12 07:13:10;;;;;;;0.40;0.40;;;8.00;99.90;;;;;;4372964;32;20600;-57
2024/02/12 07:15:36;;;;;;;0.50;0.50;;;8.00;99.90;;;;;;4374799;32;20144;-58
2024/02/12 07:18:02;;;;;;;5.55;1.00;;;7.90;99.90;;;;;;4377413;32;20073;-58
2024/02/12 07:20:28;;;;;;;1.30;1.20;;;7.90;99.90;;;;;;4388986;32;20115;-60
2024/02/12 07:22:53;;;;;;;0.43;0.43;;;7.90;99.90;;;;;;4382890;32;20456;-60
2024/02/12 07:25:19;;;;;;;1.30;0.65;;;7.90;99.90;;;;;;4384332;32;20085;-60
2024/02/12 07:27:44;;;;;;;5.82;1.52;;;7.90;99.90;;;;;;4389036;32;20514;-60
2024/02/12 07:30:10;;;;;;;0.40;0.40;;;7.90;99.90;;;;;;4383684;32;20518;-57
2024/02/12 07:32:37;;;;;;;0.68;0.68;;;7.90;99.90;;;;;;4382554;32;21057;-59
2024/02/12 07:35:06;;;;;;;0.68;0.68;;;7.90;99.90;;;;;;4384521;32;20098;-60
2024/02/12 07:37:33;;;;;;;2.30;0.90;;;7.90;99.90;;;;;;4384848;32;20502;-60
2024/02/12 07:39:58;;;;;;;8.13;0.93;;;8.00;99.90;;;;;;4382849;32;20187;-59
2024/02/12 07:42:24;;;;;;;1.42;0.82;;;8.00;99.90;;;;;;4384201;32;20082;-59
2024/02/12 07:44:50;;;;;;;0.80;0.80;;;8.00;99.90;;;;;;4373252;32;20086;-60
2024/02/12 07:47:15;;;;;;;1.02;1.00;;;8.00;99.90;;;;;;4372158;32;20698;-60
2024/02/12 07:49:41;;;;;;;0.40;0.40;;;7.90;99.90;;;;;;4382963;32;20116;-60
2024/02/12 07:52:07;;;;;;;0.45;0.45;;;8.00;99.90;;;;;;4387402;32;20137;-59
2024/02/12 07:54:34;;;;;;;0.50;0.50;;;8.00;99.90;;;;;;4382065;32;20410;-59
2024/02/12 07:56:59;;;;;;;1.00;0.95;;;8.00;99.90;;;;;;4384911;32;20771;-60
2024/02/12 07:59:25;;;;;;;0.70;0.70;;;8.00;99.90;;;;;;4377711;32;20097;-59
2024/02/12 08:01:51;;;;;;;0.70;0.70;;;8.10;99.90;;;;;;4381927;32;20447;-60
2024/02/12 08:04:19;;;;;;;4.55;0.70;;;8.00;99.90;;;;;;4373877;32;20172;-60
2024/02/12 08:06:44;;;;;;;0.68;0.57;;;8.10;99.90;;;;;;4381798;32;20085;-59
2024/02/12 08:09:10;;;;;;;0.60;0.60;;;8.10;99.90;;;;;;4379313;32;20093;-58
2024/02/12 08:11:36;;;;;;;0.35;0.35;;;8.00;99.90;;;;;;4377629;32;20769;-59
2024/02/12 08:14:02;;;;;;;1.92;0.62;;;8.00;99.90;;;;;;4379348;32;21201;-58
2024/02/12 08:16:28;;;;;;;0.70;0.70;;;8.00;99.90;;;;;;4382097;32;20178;-59
2024/02/12 08:18:53;;;;;;;2.20;1.02;;;8.00;99.90;;;;;;4384014;32;20124;-59
2024/02/12 08:21:19;;;;;;;0.85;0.85;;;8.10;99.90;;;;;;4367971;32;20114;-59
2024/02/12 08:23:45;;;;;;;0.80;0.75;;;8.10;99.90;;;;;;4375253;32;20164;-58
2024/02/12 08:26:10;;;;;;;0.40;0.40;;;8.10;99.90;;;;;;4372306;32;20082;-61
2024/02/12 08:28:39;;;;;;;0.50;0.50;;;8.10;99.90;;;;;;4365010;32;20097;-58
2024/02/12 08:31:04;;;;;;;0.60;0.60;;;8.00;99.90;;;;;;4369345;32;20098;-59
2024/02/12 08:33:30;;;;;;;3.55;0.95;;;8.00;99.90;;;;;;4373160;32;20097;-59
2024/02/12 08:35:56;;;;;;;0.40;0.40;;;8.10;99.90;;;;;;4372573;32;20088;-59
2024/02/12 08:38:21;;;;;;;0.50;0.50;;;8.10;99.90;;;;;;4380051;32;20620;-59
2024/02/12 08:40:50;;;;;;;0.88;0.82;;;8.10;99.90;;;;;;4374735;32;20086;-59
2024/02/12 08:43:16;;;;;;;0.40;0.40;;;8.10;99.90;;;;;;4365608;32;20200;-59
2024/02/12 08:45:45;;;;;;;0.70;0.70;;;8.20;99.90;;;;;;4373050;32;21653;-59
2024/02/12 08:48:12;;;;;;;0.62;0.62;;;8.20;99.90;;;;;;4359514;32;20192;-60
2024/02/12 08:50:37;;;;;;;3.20;2.25;;;8.30;99.90;;;;;;4354799;32;20478;-59
2024/02/12 08:53:03;;;;;;;1.02;0.82;;;8.20;99.90;;;;;;4348973;32;20300;-59
2024/02/12 08:55:29;;;;;;;4.62;0.80;;;8.20;99.90;;;;;;4360438;32;20857;-62
2024/02/12 08:57:55;;;;;;;0.70;0.70;;;8.20;99.90;;;;;;4357158;32;20102;-59
2024/02/12 09:00:22;;;;;;;1.37;1.27;;;8.10;99.90;;;;;;4357903;32;20085;-60
2024/02/12 09:02:48;;;;;;;0.47;0.47;;;8.10;99.90;;;;;;4362846;32;20486;-60
2024/02/12 09:05:14;;;;;;;0.40;0.40;;;8.10;99.90;;;;;;4369538;32;20093;-58
2024/02/12 09:07:40;;;;;;;1.58;0.57;;;8.10;99.90;;;;;;4374265;32;20074;-58
2024/02/12 09:10:07;;;;;;;1.55;0.77;;;8.10;99.90;;;;;;4370829;32;20077;-60
2024/02/12 09:12:37;;;;;;;0.55;0.55;;;8.20;99.90;;;;;;4375940;32;20108;-60
2024/02/12 09:15:06;;;;;;;0.35;0.35;;;8.30;99.90;;;;;;4362689;32;20102;-60
2024/02/12 09:17:32;;;;;;;0.65;0.65;;;8.40;99.90;;;;;;4371804;32;20559;-59
2024/02/12 09:19:57;;;;;;;0.45;0.45;;;8.40;99.90;;;;;;4369516;32;20501;-59
2024/02/12 09:22:23;;;;;;;2.53;1.02;;;8.40;99.90;;;;;;4379126;32;20089;-57
2024/02/12 09:24:48;;;;;;;0.32;0.32;;;8.30;99.90;;;;;;4377247;32;20323;-59
2024/02/12 09:27:14;;;;;;;1.10;1.00;;;8.30;99.90;;;;;;4380665;32;20596;-58
2024/02/12 09:29:40;;;;;;;0.30;0.30;;;8.30;99.90;;;;;;4375672;32;20082;-60
2024/02/12 09:32:05;;;;;;;0.40;0.40;;;8.30;99.90;;;;;;4369990;32;21490;-60
2024/02/12 09:34:34;;;;;;;0.40;0.40;;;8.30;99.90;;;;;;4364236;32;20081;-61
2024/02/12 09:36:59;;;;;;;0.40;0.40;;;8.20;99.90;;;;;;4368624;32;20093;-59
2024/02/12 09:39:25;;;;;;;0.45;0.45;;;8.20;99.90;;;;;;4380375;32;20159;-59
2024/02/12 09:41:51;;;;;;;0.70;0.70;;;8.30;99.90;;;;;;4369768;32;20113;-58
2024/02/12 09:44:22;;;;;;;7.85;0.90;;;8.30;99.90;;;;;;4367270;32;20085;-61
2024/02/12 09:46:50;;;;;;;;;;;8.30;99.90;;;;;;4366542;32;20081;-58
2024/02/12 09:49:16;;;;;;;2.05;1.42;;;8.30;99.90;;;;;;4377809;32;19965;-59
2024/02/12 09:51:47;;;;;;;0.60;0.60;;;8.40;99.90;;;;;;4375205;32;20727;-59
2024/02/12 09:54:13;;;;;;;0.57;0.57;;;8.40;99.90;;;;;;4367909;32;20228;-59
2024/02/12 09:56:40;;;;;;;3.62;1.15;;;8.50;99.90;;;;;;4360182;32;21286;-61
2024/02/12 09:59:06;;;;;;;0.47;0.47;;;8.50;99.90;;;;;;4369625;32;20144;-59
2024/02/12 10:01:31;;;;;;;0.80;0.68;;;8.50;99.90;;;;;;4358102;32;20089;-58
2024/02/12 10:03:58;;;;;;;0.40;0.40;;;8.50;99.90;;;;;;4358651;32;21598;-58
2024/02/12 10:06:23;;;;;;;0.65;0.65;;;8.50;99.90;;;;;;4359725;32;20086;-59
2024/02/12 10:08:50;;;;;;;0.77;0.70;;;8.50;99.90;;;;;;4356529;32;20149;-59
2024/02/12 10:11:24;;;;;;;0.60;0.60;;;8.50;99.90;;;;;;4362798;32;20228;-59
2024/02/12 10:13:50;;;;;;;0.82;0.40;;;8.50;99.90;;;;;;4365250;32;20774;-57
2024/02/12 10:16:16;;;;;;;0.50;0.50;;;8.50;99.90;;;;;;4359844;32;20123;-60
2024/02/12 10:18:43;;;;;;;1.10;0.98;;;8.60;99.90;;;;;;4356045;32;20093;-59
2024/02/12 10:21:10;;;;;;;6.12;1.30;;;8.60;99.90;;;;;;4361364;32;20136;-58
2024/02/12 10:23:36;;;;;;;0.57;0.57;;;8.70;99.90;;;;;;4364663;32;20735;-60
2024/02/12 10:26:02;;;;;;;0.70;0.70;;;8.80;99.90;;;;;;4356091;32;20093;-60
2024/02/12 10:28:28;;;;;;;0.73;0.62;;;8.80;99.90;;;;;;4367898;32;20651;-59
2024/02/12 10:30:53;;;;;;;0.60;0.60;;;8.80;99.90;;;;;;4369853;32;20105;-60
2024/02/12 10:33:22;;;;;;;0.88;0.88;;;8.90;99.90;;;;;;4365278;32;20152;-62
2024/02/12 10:35:50;;;;;;;1.50;0.98;;;9.00;99.90;;;;;;4364207;32;20648;-61
2024/02/12 10:38:16;;;;;;;0.47;0.47;;;9.00;99.90;;;;;;4363945;32;20896;-61
2024/02/12 10:40:58;;;;;;;1.10;0.85;;;9.10;99.90;;;;;;4367965;32;20101;-60
2024/02/12 10:43:26;;;;;;;0.50;0.50;;;9.10;99.90;;;;;;4373774;32;20077;-60
2024/02/12 10:45:53;;;;;;;0.57;0.57;;;9.20;99.90;;;;;;4374513;32;21214;-59
2024/02/12 10:48:20;;;;;;;0.40;0.40;;;9.30;99.90;;;;;;4374069;32;20074;-59
2024/02/12 10:50:47;;;;;;;0.50;0.50;;;9.30;99.90;;;;;;4374213;32;20105;-60
2024/02/12 10:53:15;;;;;;;0.55;0.55;;;9.40;99.90;;;;;;4374567;32;20263;-61
2024/02/12 10:55:42;;;;;;;0.40;0.40;;;9.50;99.90;;;;;;4376753;32;20750;-59
2024/02/12 10:58:09;;;;;;;1.55;0.95;;;9.50;99.90;;;;;;4373156;32;21052;-60
2024/02/12 11:00:38;;;;;;;1.35;1.25;;;9.40;99.90;;;;;;4363668;32;20595;-61
2024/02/12 11:03:06;;;;;;;0.60;0.60;;;9.40;99.90;;;;;;4366735;32;20161;-59
2024/02/12 11:05:36;;;;;;;0.50;0.50;;;9.40;99.90;;;;;;4374490;32;20132;-59
2024/02/12 11:08:04;;;;;;;;;;;9.50;99.90;;;;;;4379766;32;20521;-59
2024/02/12 11:10:34;;;;;;;0.55;0.55;;;9.60;99.90;;;;;;4370581;32;19961;-57
2024/02/12 11:13:04;;;;;;;0.50;0.50;;;9.60;99.90;;;;;;4368329;32;20077;-58
2024/02/12 11:15:29;;;;;;;0.80;0.80;;;9.60;99.90;;;;;;4363598;32;20101;-60
2024/02/12 11:17:55;;;;;;;0.60;0.60;;;9.70;99.90;;;;;;4364503;32;20201;-57
2024/02/12 11:20:23;;;;;;;0.70;0.70;;;9.80;99.90;;;;;;4363811;32;22366;-59
2024/02/12 11:22:49;;;;;;;4.32;1.65;;;10.00;99.90;;;;;;4370091;32;20613;-56
2024/02/12 11:25:16;;;;;;;0.47;0.47;;;10.20;99.90;;;;;;4361796;32;20450;-61
2024/02/12 11:27:48;;;;;;;0.70;0.70;;;10.30;99.90;;;;;;4370950;32;20125;-61
2024/02/12 11:30:16;;;;;;;0.80;0.80;;;10.40;99.90;;;;;;4372661;32;20900;-60
2024/02/12 11:32:42;;;;;;;0.73;0.70;;;10.60;99.90;;;;;;4374383;32;20085;-58
2024/02/12 11:35:12;;;;;;;0.50;0.50;;;10.80;99.90;;;;;;4369322;32;20136;-59
2024/02/12 11:37:39;;;;;;;1.25;0.98;;;11.00;99.90;;;;;;4377901;32;20101;-60
2024/02/12 11:40:09;;;;;;;0.60;0.52;;;11.00;99.90;;;;;;4385478;32;20078;-58
2024/02/12 11:42:35;;;;;;;1.57;0.90;;;11.00;99.90;;;;;;4376709;32;20085;-59
2024/02/12 11:45:01;;;;;;;0.55;0.55;;;11.00;99.90;;;;;;4378542;32;20154;-59
2024/02/12 11:47:27;;;;;;;0.40;0.40;;;10.90;99.90;;;;;;4384800;32;20076;-58
2024/02/12 11:49:53;;;;;;;0.65;0.65;;;10.70;99.90;;;;;;4380515;32;20077;-59
2024/02/12 11:52:21;;;;;;;0.50;0.50;;;10.40;99.90;;;;;;4369218;32;110919;-59
2024/02/12 11:54:47;;;;;;;0.60;0.60;;;10.30;99.90;;;;;;4366801;32;20388;-58
2024/02/12 11:57:13;;;;;;;0.70;0.70;;;10.20;99.90;;;;;;4368653;32;20362;-55
2024/02/12 11:59:38;;;;;;;0.60;0.47;;;10.10;99.90;;;;;;4366775;32;20184;-59
2024/02/12 12:02:04;;;;;;;0.70;0.70;;;10.00;99.90;;;;;;4373480;32;20078;-57
2024/02/12 12:04:33;;;;;;;0.68;0.68;;;9.80;99.90;;;;;;4377017;32;20522;-59
2024/02/12 12:06:59;;;;;;;0.57;0.57;;;9.80;99.90;;;;;;4362585;32;20536;-59
2024/02/12 12:09:24;;;;;;;0.50;0.50;;;9.70;99.90;;;;;;4375653;32;20926;-55
2024/02/12 12:11:50;;;;;;;0.50;0.50;;;9.80;99.90;;;;;;4376252;32;20197;-59
2024/02/12 12:14:16;;;;;;;0.60;0.60;;;9.80;99.90;;;;;;4361436;32;20440;-60
2024/02/12 12:16:42;;;;;;;0.93;0.85;;;9.90;99.90;;;;;;4380019;32;20826;-58
2024/02/12 12:19:09;;;;;;;0.57;0.57;;;9.90;99.90;;;;;;4378411;32;20120;-57
2024/02/12 12:21:35;;;;;;;0.47;0.47;;;9.80;99.90;;;;;;4376129;32;20086;-60
2024/02/12 12:24:01;;;;;;;0.77;0.70;;;9.70;99.90;;;;;;4378178;32;20651;-59
2024/02/12 12:26:27;;;;;;;0.50;0.50;;;9.70;99.90;;;;;;4378490;32;20102;-57
2024/02/12 12:28:52;;;;;;;0.50;0.50;;;9.70;99.90;;;;;;4375161;32;20101;-64
2024/02/12 12:31:18;;;;;;;0.55;0.55;;;9.80;99.90;;;;;;4376132;32;21660;-60
2024/02/12 12:33:43;;;;;;;0.65;0.65;;;9.80;99.90;;;;;;4371156;32;20853;-59
2024/02/12 12:36:10;;;;;;;1.02;0.70;;;10.10;99.90;;;;;;4381957;32;20085;-60
2024/02/12 12:38:37;;;;;;;0.43;0.43;;;10.70;99.90;;;;;;4379255;32;20101;-61
2024/02/12 12:41:06;;;;;;;1.50;1.00;;;11.30;99.90;;;;;;4378985;32;20081;-63
2024/02/12 12:43:33;;;;;;;1.42;0.55;;;11.90;99.90;;;;;;4370369;32;20113;-59
2024/02/12 12:45:59;;;;;;;3.55;0.75;;;12.30;99.90;;;;;;4363612;32;20136;-60
2024/02/12 12:48:24;;;;;;;1.73;0.88;;;13.00;99.90;;;;;;4365828;32;20767;-60
2024/02/12 12:50:50;;;;;;;2.97;0.68;;;13.60;99.90;;;;;;4376634;32;20479;-60
2024/02/12 12:53:15;;;;;;;5.70;0.70;;;13.30;99.90;;;;;;4377998;32;20097;-59
2024/02/12 12:55:41;;;;;;;0.60;0.60;;;12.50;99.90;;;;;;4372428;32;20185;-59
2024/02/12 12:58:06;;;;;;;1.23;1.02;;;11.90;99.90;;;;;;4379935;32;20841;-60
2024/02/12 13:00:36;;;;;;;0.47;0.47;;;11.40;99.90;;;;;;4375625;32;20114;-59
2024/02/12 13:03:02;;;;;;;0.57;0.57;;;11.30;99.90;;;;;;4380194;32;20089;-59